createdAt,value
2023-02-03T00:00:15.212Z,96298.19
2023-02-03T00:05:17.640Z,96287.19
2023-02-03T00:10:21.731Z,96285.81
2023-02-03T00:15:24.153Z,96319.69
2023-02-03T00:20:26.930Z,96299.19
2023-02-03T00:25:29.217Z,96333.00
2023-02-03T00:30:32.154Z,96300.78
2023-02-03T00:35:34.461Z,96307.59
2023-02-03T00:40:36.605Z,96322.63
2023-02-03T00:45:38.766Z,96329.63
2023-02-03T00:50:41.235Z,96335.84
2023-02-03T00:55:44.223Z,96336.22
2023-02-03T01:00:46.384Z,96331.53
2023-02-03T01:05:48.666Z,96328.00
2023-02-03T01:10:51.058Z,96321.63
2023-02-03T01:15:53.229Z,96324.72
2023-02-03T01:20:55.584Z,96307.16
2023-02-03T01:26:01.960Z,96307.44
2023-02-03T01:31:13.346Z,96284.84
2023-02-03T01:36:17.688Z,96343.88
2023-02-03T01:41:25.326Z,96359.22
2023-02-03T01:46:39.124Z,96357.31
2023-02-03T01:51:44.684Z,96340.91
2023-02-03T01:56:54.763Z,96302.63
2023-02-03T02:01:58.097Z,96299.19
2023-02-03T02:07:00.540Z,96297.38
2023-02-03T02:12:02.810Z,96297.13
2023-02-03T02:17:21.079Z,96331.94
2023-02-03T02:22:31.640Z,96330.69
2023-02-03T02:28:21.271Z,96350.00
2023-02-03T02:33:57.392Z,96317.03
2023-02-03T02:39:13.802Z,96305.88
2023-02-03T02:44:37.566Z,96341.41
2023-02-03T02:49:42.952Z,96368.72
2023-02-03T02:54:51.902Z,96337.41
2023-02-03T02:59:55.806Z,96327.00
2023-02-03T03:05:00.180Z,96364.81
2023-02-03T03:10:07.966Z,96386.50
2023-02-03T03:15:23.075Z,96388.25
2023-02-03T03:20:27.916Z,96395.38
2023-02-03T03:25:39.778Z,96426.66
2023-02-03T03:30:42.579Z,96431.94
2023-02-03T03:36:24.728Z,96432.13
2023-02-03T03:41:39.108Z,96456.13
2023-02-03T03:46:50.807Z,96439.00
2023-02-03T03:51:58.750Z,96426.69
2023-02-03T03:57:24.244Z,96460.97
2023-02-03T04:02:28.730Z,96465.31
2023-02-03T04:07:43.602Z,96448.16
2023-02-03T04:12:45.879Z,96466.28
2023-02-03T04:17:50.905Z,96444.09
2023-02-03T04:22:53.117Z,96434.09
2023-02-03T04:27:55.678Z,96461.97
2023-02-03T04:33:00.568Z,96426.75
2023-02-03T04:38:03.356Z,96484.34
2023-02-03T04:43:09.138Z,96426.44
2023-02-03T04:48:11.439Z,96467.34
2023-02-03T04:53:15.696Z,96438.50
2023-02-03T04:58:21.384Z,96450.28
2023-02-03T05:03:25.827Z,96492.75
2023-02-03T05:08:28.659Z,96462.94
2023-02-03T05:13:30.935Z,96470.59
2023-02-03T05:18:33.052Z,96507.31
2023-02-03T05:23:36.764Z,96483.13
2023-02-03T05:28:39.282Z,96488.50
2023-02-03T05:33:41.811Z,96515.78
2023-02-03T05:38:44.261Z,96518.91
2023-02-03T05:43:46.501Z,96497.00
2023-02-03T05:48:48.820Z,96522.31
2023-02-03T05:53:51.209Z,96528.50
2023-02-03T05:58:53.987Z,96552.31
2023-02-03T06:03:56.369Z,96535.16
2023-02-03T06:08:58.637Z,96529.03
2023-02-03T06:14:01.406Z,96557.50
2023-02-03T06:19:03.662Z,96556.47
2023-02-03T06:24:07.146Z,96577.91
2023-02-03T06:29:09.669Z,96582.63
2023-02-03T06:34:11.824Z,96553.59
2023-02-03T06:39:14.081Z,96576.75
2023-02-03T06:44:16.358Z,96587.78
2023-02-03T06:49:19.115Z,96575.06
2023-02-03T06:54:21.303Z,96579.34
2023-02-03T06:59:23.564Z,96609.56
2023-02-03T07:11:33.238Z,96633.94
2023-02-03T07:16:37.868Z,96626.94
2023-02-03T07:21:40.108Z,96653.47
2023-02-03T07:26:42.474Z,96653.94
2023-02-03T07:31:45.104Z,96631.41
2023-02-03T07:36:47.339Z,96665.97
2023-02-03T07:41:49.742Z,96635.59
2023-02-03T07:46:52.127Z,96631.34
2023-02-03T07:51:54.236Z,96659.34
2023-02-03T07:56:56.450Z,96651.56
2023-02-03T08:01:58.842Z,96664.28
2023-02-03T08:07:01.156Z,96671.66
2023-02-03T08:12:03.556Z,96652.19
2023-02-03T08:17:05.765Z,96659.53
2023-02-03T08:22:07.924Z,96654.88
2023-02-03T08:27:09.995Z,96670.63
2023-02-03T08:32:18.202Z,96673.53
2023-02-03T08:37:24.672Z,96696.25
2023-02-03T08:42:27.547Z,96708.41
2023-02-03T08:47:29.665Z,96690.19
2023-02-03T08:52:32.009Z,96709.66
2023-02-03T08:57:36.132Z,96710.81
2023-02-03T09:02:38.308Z,96683.69
2023-02-03T09:07:40.378Z,96699.38
2023-02-03T09:12:42.734Z,96711.72
2023-02-03T09:17:45.186Z,96709.03
2023-02-03T09:22:47.402Z,96732.88
2023-02-03T09:27:49.878Z,96727.06
2023-02-03T09:32:56.734Z,96708.31
2023-02-03T09:38:01.033Z,96687.03
2023-02-03T09:43:21.816Z,96711.66
2023-02-03T09:48:30.986Z,96681.78
2023-02-03T09:53:45.685Z,96664.28
2023-02-03T09:58:48.104Z,96665.13
2023-02-03T10:04:27.995Z,96697.72
2023-02-03T10:09:54.745Z,96682.19
2023-02-03T10:15:18.243Z,96688.69
2023-02-03T10:20:36.027Z,96663.78
2023-02-03T10:25:45.007Z,96630.09
2023-02-03T10:30:57.223Z,96683.16
2023-02-03T10:36:13.691Z,96670.25
2023-02-03T10:41:18.253Z,96677.41
2023-02-03T10:46:33.074Z,96669.56
2023-02-03T10:51:40.759Z,96643.13
2023-02-03T10:56:43.030Z,96666.56
2023-02-03T11:01:49.500Z,96630.34
2023-02-03T11:06:57.355Z,96663.19
2023-02-03T11:12:08.362Z,96647.31
2023-02-03T11:17:33.154Z,96651.41
2023-02-03T11:22:40.646Z,96632.75
2023-02-03T11:27:43.435Z,96626.38
2023-02-03T11:32:48.121Z,96631.72
2023-02-03T11:37:56.300Z,96607.19
2023-02-03T11:42:58.474Z,96611.47
2023-02-03T11:48:15.781Z,96621.56
2023-02-03T11:53:27.666Z,96592.53
2023-02-03T11:58:48.640Z,96618.00
2023-02-03T12:04:12.845Z,96617.03
2023-02-03T12:09:24.342Z,96611.41
2023-02-03T12:14:36.777Z,96616.00
2023-02-03T12:19:48.110Z,96603.91
2023-02-03T12:25:14.382Z,96613.81
2023-02-03T12:30:24.928Z,96580.31
2023-02-03T12:35:48.267Z,96589.28
2023-02-03T12:41:01.104Z,96614.69
2023-02-03T12:46:18.638Z,96593.66
2023-02-03T12:51:45.584Z,96563.88
2023-02-03T12:56:51.835Z,96608.22
2023-02-03T13:02:03.511Z,96580.25
2023-02-03T13:07:15.501Z,96613.75
2023-02-03T13:12:31.602Z,96581.44
2023-02-03T13:17:52.599Z,96571.16
2023-02-03T13:22:55.068Z,96555.19
2023-02-03T13:28:15.423Z,96550.09
2023-02-03T13:33:44.347Z,96586.94
2023-02-03T13:39:34.688Z,96587.97
2023-02-03T13:44:39.865Z,96537.13
2023-02-03T13:49:46.641Z,96576.28
2023-02-03T13:54:49.185Z,96546.47
2023-02-03T13:59:51.563Z,96531.19
2023-02-03T14:04:56.556Z,96538.91
2023-02-03T14:10:24.360Z,96563.91
2023-02-03T14:15:28.493Z,96559.22
2023-02-03T14:20:49.398Z,96543.91
2023-02-03T14:26:17.270Z,96542.53
2023-02-03T14:31:25.462Z,96525.84
2023-02-03T14:36:38.918Z,96546.66
2023-02-03T14:42:02.429Z,96553.22
2023-02-03T14:47:51.516Z,96500.22
2023-02-03T14:53:22.731Z,96531.50
2023-02-03T14:58:45.209Z,96551.94
2023-02-03T15:04:13.045Z,96556.41
2023-02-03T18:43:35.134Z,96372.19
2023-02-03T18:48:37.935Z,96372.75
2023-02-03T18:53:40.292Z,96352.03
2023-02-03T18:58:42.722Z,96338.25
2023-02-03T19:03:45.064Z,96325.22
2023-02-03T19:08:48.022Z,96338.09
2023-02-03T19:13:50.299Z,96330.25
2023-02-03T19:18:53.753Z,96320.00
2023-02-03T19:23:56.096Z,96332.75
2023-02-03T19:28:58.243Z,96310.69
2023-02-03T19:34:00.847Z,96300.53
2023-02-03T19:39:02.966Z,96296.16
2023-02-03T19:44:05.990Z,96283.31
2023-02-03T19:49:15.163Z,96302.66
2023-02-03T19:54:17.403Z,96280.88
2023-02-03T19:59:19.745Z,96260.41
2023-02-03T20:04:22.194Z,96264.44
2023-02-03T20:09:25.424Z,96257.63
2023-02-03T20:14:27.657Z,96216.53
2023-02-03T20:19:29.724Z,96268.41
2023-02-03T20:24:31.964Z,96279.13
2023-02-03T20:29:34.188Z,96254.53
2023-02-03T20:34:36.459Z,96238.78
2023-02-03T20:39:38.760Z,96230.44
2023-02-03T20:44:42.332Z,96227.09
2023-02-03T20:49:45.536Z,96245.38
2023-02-03T20:54:48.223Z,96218.91
2023-02-03T20:59:50.572Z,96216.31
2023-02-03T21:04:58.377Z,96197.34
2023-02-03T21:10:00.853Z,96205.78
2023-02-03T21:15:03.380Z,96188.28
2023-02-03T21:20:29.363Z,96182.94
2023-02-03T21:25:35.018Z,96178.31
2023-02-03T21:30:37.543Z,96164.31
2023-02-03T21:35:39.901Z,96169.25
2023-02-03T21:40:42.001Z,96162.94
2023-02-03T21:45:44.949Z,96160.59
2023-02-03T21:50:47.391Z,96151.28
2023-02-03T21:55:49.736Z,96146.94
2023-02-03T22:00:54.152Z,96143.72
2023-02-03T22:06:19.211Z,96150.88
2023-02-03T22:11:23.257Z,96120.84
2023-02-03T22:16:25.988Z,96131.03
2023-02-03T22:21:28.143Z,96117.56
2023-02-03T22:26:30.565Z,96106.41
2023-02-03T22:31:33.196Z,96131.16
2023-02-03T22:36:35.443Z,96099.53
2023-02-03T22:41:37.872Z,96107.13
2023-02-03T22:46:40.081Z,96104.03
2023-02-03T22:51:42.607Z,96065.59
2023-02-03T22:56:44.791Z,96067.09
2023-02-03T23:01:47.062Z,96044.72
2023-02-03T23:06:49.182Z,96050.19
2023-02-03T23:11:51.250Z,96064.34
2023-02-03T23:16:53.271Z,96038.16
2023-02-03T23:21:55.660Z,96026.84
2023-02-03T23:26:57.820Z,96039.84
2023-02-03T23:31:59.993Z,96030.28
2023-02-03T23:37:02.210Z,96018.41
2023-02-03T23:42:04.887Z,96018.81
2023-02-03T23:47:07.154Z,96007.91
2023-02-03T23:52:09.366Z,96019.56
2023-02-03T23:57:11.678Z,95997.66
